Time;durP1;ratioP1;P1;durP2;ratioP2;P2;SDS_P1;SDS_P2;PMS_P1;PMS_P2;Temp;Humidity;BMP_temperature;BMP_pressure;BME280_temperature;BME280_humidity;BME280_pressure;Samples;Min_cycle;Max_cycle;Signal;HPM_P1;HPM_P2
2023/05/24 00:01:42;;;;;;;32.47;5.90;;;12.30;99.90;;;;;;5092267;28;20040;-90
2023/05/24 00:04:07;;;;;;;19.25;4.38;;;12.30;99.90;;;;;;5093203;28;20016;-90
2023/05/24 00:06:36;;;;;;;11.57;3.53;;;12.30;99.90;;;;;;5093226;28;20028;-90
2023/05/24 00:09:02;;;;;;;15.10;4.32;;;12.30;99.90;;;;;;5092987;28;20376;-91
2023/05/24 00:11:28;;;;;;;15.82;3.60;;;12.40;99.90;;;;;;5093547;28;20031;-90
2023/05/24 00:13:53;;;;;;;17.98;5.22;;;12.30;99.90;;;;;;5100151;28;20023;-90
2023/05/24 00:16:19;;;;;;;21.90;4.85;;;12.40;99.90;;;;;;5109084;28;20118;-90
2023/05/24 00:18:45;;;;;;;19.60;4.32;;;12.30;99.90;;;;;;5092748;28;20069;-90
2023/05/24 00:21:12;;;;;;;19.75;4.53;;;12.30;99.90;;;;;;5093077;28;20395;-89
2023/05/24 00:23:38;;;;;;;16.05;4.15;;;12.30;99.90;;;;;;5092617;28;20020;-90
2023/05/24 00:26:07;;;;;;;12.20;4.18;;;12.80;99.90;;;;;;5093627;28;20032;-91
2023/05/24 00:28:33;;;;;;;16.65;3.88;;;12.20;99.90;;;;;;5078934;28;20027;-89
2023/05/24 00:30:59;;;;;;;17.27;4.97;;;12.20;99.90;;;;;;5076523;28;20024;-90
2023/05/24 00:33:26;;;;;;;17.92;4.88;;;12.20;99.90;;;;;;5077339;28;20451;-91
2023/05/24 00:35:55;;;;;;;6.82;3.63;;;12.20;99.90;;;;;;5090481;28;20534;-91
2023/05/24 00:38:22;;;;;;;13.02;4.68;;;12.10;99.90;;;;;;5097821;28;20086;-90
2023/05/24 00:40:48;;;;;;;15.00;4.35;;;12.10;99.90;;;;;;5099693;28;20021;-90
2023/05/24 00:43:14;;;;;;;16.70;4.80;;;12.20;99.90;;;;;;5095961;28;20056;-91
2023/05/24 00:45:40;;;;;;;12.23;4.68;;;12.20;99.90;;;;;;5092149;28;20040;-91
2023/05/24 00:48:06;;;;;;;17.30;4.75;;;12.20;99.90;;;;;;5093427;28;20024;-89
2023/05/24 00:50:32;;;;;;;11.52;4.25;;;12.10;99.90;;;;;;5098295;28;20024;-90
2023/05/24 00:53:01;;;;;;;12.15;4.32;;;12.20;99.90;;;;;;5093841;28;20478;-90
2023/05/24 00:55:28;;;;;;;14.77;4.50;;;12.20;99.90;;;;;;5093993;28;20525;-90
2023/05/24 00:57:55;;;;;;;12.82;3.95;;;12.20;99.90;;;;;;5096891;28;20037;-90
2023/05/24 01:00:22;;;;;;;14.65;4.38;;;12.10;99.90;;;;;;5116487;28;20042;-89
2023/05/24 01:02:51;;;;;;;15.60;4.53;;;12.10;99.90;;;;;;5115151;28;20262;-90
2023/05/24 01:05:17;;;;;;;20.77;4.00;;;12.00;99.90;;;;;;5116519;28;20028;-90
2023/05/24 01:08:15;;;;;;;16.02;3.92;;;12.00;99.90;;;;;;5116547;28;20042;-90
2023/05/24 01:11:05;;;;;;;15.73;3.95;;;12.00;99.90;;;;;;5116915;28;20084;-91
2023/05/24 01:13:46;;;;;;;11.82;4.57;;;11.90;99.90;;;;;;5116616;28;20047;-91
2023/05/24 01:16:18;;;;;;;11.32;4.00;;;11.90;99.90;;;;;;5100411;28;20036;-90
2023/05/24 01:18:51;;;;;;;9.55;3.40;;;11.90;99.90;;;;;;5102160;28;20110;-90
2023/05/24 01:21:55;;;;;;;13.52;3.70;;;11.90;99.90;;;;;;5096800;28;20048;-92
2023/05/24 01:24:43;;;;;;;17.80;4.57;;;11.80;99.90;;;;;;5096340;28;20031;-91
2023/05/24 01:27:11;;;;;;;11.88;4.30;;;11.80;99.90;;;;;;5097624;28;20016;-91
2023/05/24 01:29:37;;;;;;;11.02;3.92;;;11.80;99.90;;;;;;5115628;28;20126;-90
2023/05/24 01:32:03;;;;;;;8.60;3.78;;;11.80;99.90;;;;;;5106621;28;20481;-91
2023/05/24 01:34:29;;;;;;;15.05;4.38;;;11.80;99.90;;;;;;5097964;28;20020;-91
2023/05/24 01:36:55;;;;;;;16.77;3.97;;;11.70;99.90;;;;;;5095755;28;20119;-90
2023/05/24 01:39:23;;;;;;;15.13;4.75;;;11.60;99.90;;;;;;5095727;28;20420;-90
2023/05/24 01:41:56;;;;;;;18.00;4.90;;;11.70;99.90;;;;;;5103827;28;20024;-90
2023/05/24 01:44:32;;;;;;;14.85;4.38;;;11.70;99.90;;;;;;5108313;28;20016;-91
2023/05/24 01:47:26;;;;;;;10.75;4.07;;;11.70;99.90;;;;;;5107097;28;20027;-91
2023/05/24 01:49:56;;;;;;;20.35;4.05;;;11.70;99.90;;;;;;5115998;28;20511;-90
2023/05/24 01:52:25;;;;;;;15.30;3.70;;;11.60;99.90;;;;;;5116506;28;20058;-91
2023/05/24 01:54:55;;;;;;;11.50;4.05;;;11.60;99.90;;;;;;5114746;28;20289;-91
2023/05/24 01:57:22;;;;;;;19.80;5.28;;;11.60;99.90;;;;;;5115702;28;20084;-92
2023/05/24 01:59:49;;;;;;;15.05;4.53;;;11.60;99.90;;;;;;5115914;28;20038;-90
2023/05/24 02:02:14;;;;;;;9.52;3.70;;;11.60;99.90;;;;;;5115501;28;20024;-91
2023/05/24 02:04:40;;;;;;;21.92;4.45;;;11.50;99.90;;;;;;5116016;28;20030;-90
2023/05/24 02:07:06;;;;;;;21.63;6.15;;;11.60;99.90;;;;;;5115071;28;20026;-91
2023/05/24 02:09:32;;;;;;;12.85;4.70;;;11.50;99.90;;;;;;5114784;28;20114;-90
2023/05/24 02:11:57;;;;;;;16.17;4.82;;;11.50;99.90;;;;;;5115172;28;20026;-92
2023/05/24 02:14:23;;;;;;;10.45;4.40;;;11.60;99.90;;;;;;5114554;28;20023;-90
2023/05/24 02:16:49;;;;;;;10.55;4.65;;;11.60;99.90;;;;;;5114684;28;20060;-90
2023/05/24 02:19:16;;;;;;;12.82;4.40;;;11.60;99.90;;;;;;5114217;28;20023;-90
2023/05/24 02:21:41;;;;;;;12.77;4.13;;;11.70;99.90;;;;;;5114806;28;20027;-91
2023/05/24 02:24:10;;;;;;;11.43;4.75;;;11.60;99.90;;;;;;5115399;28;20364;-90
2023/05/24 02:26:36;;;;;;;12.75;4.63;;;11.60;99.90;;;;;;5115258;28;20029;-89
2023/05/24 02:29:02;;;;;;;12.70;4.18;;;11.60;99.90;;;;;;5114643;28;20027;-90
2023/05/24 02:31:28;;;;;;;18.17;4.65;;;11.60;99.90;;;;;;5110262;28;20024;-89
2023/05/24 02:33:57;;;;;;;17.35;5.10;;;11.70;99.90;;;;;;5094010;28;20032;-90
2023/05/24 02:36:23;;;;;;;14.65;4.40;;;11.80;99.90;;;;;;5099711;28;20036;-89
2023/05/24 02:38:50;;;;;;;12.82;4.22;;;11.70;99.90;;;;;;5109457;28;20133;-88
2023/05/24 02:41:17;;;;;;;14.57;4.13;;;11.70;99.90;;;;;;5096360;28;20031;-90
2023/05/24 02:43:46;;;;;;;13.20;4.03;;;11.60;99.90;;;;;;5093843;28;20020;-90
2023/05/24 02:46:13;;;;;;;13.55;4.38;;;11.60;99.90;;;;;;5095460;28;20028;-90
2023/05/24 02:48:38;;;;;;;20.25;4.88;;;11.60;99.90;;;;;;5094350;28;20040;-89
2023/05/24 02:51:04;;;;;;;18.30;5.32;;;11.60;99.90;;;;;;5093788;28;20066;-89
2023/05/24 02:53:30;;;;;;;14.52;4.65;;;12.30;99.90;;;;;;5092903;28;20082;-89
2023/05/24 02:55:56;;;;;;;19.77;4.95;;;11.60;99.90;;;;;;5093418;28;20094;-90
2023/05/24 02:58:22;;;;;;;14.73;4.97;;;11.50;99.90;;;;;;5095861;28;20028;-90
2023/05/24 03:00:48;;;;;;;14.18;4.32;;;11.50;99.90;;;;;;5095013;28;20031;-89
2023/05/24 03:03:13;;;;;;;15.55;4.97;;;11.50;99.90;;;;;;5096131;28;20131;-90
2023/05/24 03:05:39;;;;;;;12.95;5.07;;;11.50;99.90;;;;;;5093475;28;20150;-90
2023/05/24 03:08:05;;;;;;;12.70;4.95;;;11.50;99.90;;;;;;5094394;28;20031;-90
2023/05/24 03:10:31;;;;;;;16.58;5.00;;;11.50;99.90;;;;;;5093046;28;20035;-90
2023/05/24 03:12:56;;;;;;;12.82;4.43;;;11.40;99.90;;;;;;5093731;28;20028;-90
2023/05/24 03:15:22;;;;;;;13.48;4.70;;;11.40;99.90;;;;;;5093985;28;20035;-90
2023/05/24 03:17:48;;;;;;;12.93;4.40;;;11.40;99.90;;;;;;5093039;28;20035;-89
2023/05/24 03:20:14;;;;;;;16.02;4.78;;;11.40;99.90;;;;;;5093894;28;20017;-89
2023/05/24 03:22:40;;;;;;;27.70;5.78;;;11.40;99.90;;;;;;5093601;28;20024;-89
2023/05/24 03:25:08;;;;;;;17.60;4.63;;;11.40;99.90;;;;;;5093198;28;20028;-91
2023/05/24 03:27:36;;;;;;;16.80;4.40;;;11.50;99.90;;;;;;5092974;28;20032;-90
2023/05/24 03:30:02;;;;;;;10.15;4.30;;;11.50;99.90;;;;;;5097921;28;20024;-90
2023/05/24 03:32:28;;;;;;;12.80;4.95;;;11.40;99.90;;;;;;5105365;28;20078;-88
2023/05/24 03:34:55;;;;;;;17.35;5.28;;;11.40;99.90;;;;;;5091408;28;20016;-90
2023/05/24 03:37:21;;;;;;;12.65;4.88;;;11.40;99.90;;;;;;5093233;28;20044;-90
2023/05/24 03:39:46;;;;;;;13.75;4.78;;;11.40;99.90;;;;;;5092097;28;20472;-90
2023/05/24 03:42:12;;;;;;;17.92;5.50;;;11.40;99.90;;;;;;5090768;28;20523;-90
2023/05/24 03:44:38;;;;;;;14.02;4.28;;;11.40;99.90;;;;;;5090494;28;20054;-90
2023/05/24 03:47:04;;;;;;;15.27;5.88;;;11.40;99.90;;;;;;5112834;28;20050;-91
2023/05/24 03:49:30;;;;;;;15.45;4.25;;;11.30;99.90;;;;;;5112117;28;20078;-89
2023/05/24 03:51:56;;;;;;;9.32;4.55;;;11.30;99.90;;;;;;5092674;28;20031;-90
2023/05/24 03:54:21;;;;;;;17.60;4.88;;;11.30;99.90;;;;;;5091427;28;20052;-90
2023/05/24 03:56:47;;;;;;;16.40;4.63;;;11.30;99.90;;;;;;5092332;28;20403;-90
2023/05/24 03:59:12;;;;;;;17.10;5.03;;;11.20;99.90;;;;;;5092275;28;20043;-90
2023/05/24 04:01:38;;;;;;;22.05;5.93;;;11.20;99.90;;;;;;5090415;28;20024;-90
2023/05/24 04:04:04;;;;;;;17.52;5.50;;;11.20;99.90;;;;;;5091359;28;20027;-90
2023/05/24 04:06:29;;;;;;;14.43;4.78;;;11.30;99.90;;;;;;5091266;28;20475;-89
2023/05/24 04:08:59;;;;;;;13.25;4.78;;;11.30;99.90;;;;;;5024939;28;20153;-90
2023/05/24 04:11:27;;;;;;;11.90;4.57;;;11.30;99.90;;;;;;5009871;28;20025;-91
2023/05/24 04:13:59;;;;;;;15.98;4.95;;;11.40;99.90;;;;;;5008582;28;20036;-90
2023/05/24 04:16:25;;;;;;;13.98;4.40;;;11.40;99.90;;;;;;5009931;28;20069;-88
2023/05/24 04:18:50;;;;;;;18.17;5.32;;;11.40;99.90;;;;;;5077060;28;20169;-89
2023/05/24 04:21:16;;;;;;;16.02;5.30;;;11.40;99.90;;;;;;5071524;28;20470;-90
2023/05/24 04:23:42;;;;;;;15.77;5.57;;;11.40;99.90;;;;;;5072445;28;20033;-89
2023/05/24 04:26:09;;;;;;;18.85;6.88;;;11.40;99.90;;;;;;5073186;28;20047;-90
2023/05/24 04:28:35;;;;;;;17.25;5.50;;;11.40;99.90;;;;;;5079896;28;20036;-90
2023/05/24 04:31:00;;;;;;;14.27;5.07;;;11.50;99.90;;;;;;5084456;28;20031;-91
2023/05/24 04:33:26;;;;;;;19.85;5.15;;;11.40;99.90;;;;;;5080775;28;20032;-86
2023/05/24 04:35:52;;;;;;;16.35;5.22;;;11.50;99.90;;;;;;5055695;28;20405;-87
2023/05/24 04:38:18;;;;;;;15.95;5.03;;;11.50;99.90;;;;;;5059787;28;20081;-89
2023/05/24 04:40:44;;;;;;;15.18;5.07;;;11.50;99.90;;;;;;5034253;28;20030;-92
2023/05/24 04:43:10;;;;;;;14.13;4.45;;;11.50;99.90;;;;;;5096989;28;20028;-91
2023/05/24 04:45:37;;;;;;;25.30;5.75;;;11.40;99.90;;;;;;5097262;28;20028;-92
2023/05/24 04:48:02;;;;;;;23.75;5.40;;;11.40;99.90;;;;;;5092836;28;20029;-90
2023/05/24 04:50:28;;;;;;;16.27;4.80;;;11.40;99.90;;;;;;5098664;28;20039;-91
2023/05/24 04:52:54;;;;;;;12.48;4.43;;;11.40;99.90;;;;;;5095976;28;20073;-92
2023/05/24 04:55:19;;;;;;;16.92;5.60;;;11.40;99.90;;;;;;5095161;28;20051;-87
2023/05/24 04:57:45;;;;;;;18.90;6.30;;;11.40;99.90;;;;;;5093838;28;20043;-87
2023/05/24 05:00:11;;;;;;;14.13;5.28;;;11.40;99.90;;;;;;5088816;28;20357;-86
2023/05/24 05:02:37;;;;;;;17.48;6.25;;;11.40;99.90;;;;;;5095841;28;20040;-91
2023/05/24 05:05:02;;;;;;;15.32;6.13;;;11.40;99.90;;;;;;5097028;28;20076;-91
2023/05/24 05:07:28;;;;;;;13.02;4.90;;;11.50;99.90;;;;;;5096578;28;20024;-90
2023/05/24 05:09:54;;;;;;;15.90;5.88;;;11.50;99.90;;;;;;5094972;28;20383;-89
2023/05/24 05:12:19;;;;;;;13.60;4.85;;;11.50;99.90;;;;;;5098470;28;20025;-89
2023/05/24 05:14:45;;;;;;;21.92;5.93;;;11.50;99.90;;;;;;5102246;28;20063;-89
2023/05/24 05:17:10;;;;;;;15.77;5.38;;;11.60;99.90;;;;;;5095175;28;20040;-89
2023/05/24 05:19:36;;;;;;;18.27;5.13;;;11.60;99.90;;;;;;5094933;28;20031;-89
2023/05/24 05:22:02;;;;;;;22.23;5.25;;;11.70;99.90;;;;;;5096073;28;20028;-90
2023/05/24 05:24:27;;;;;;;24.42;5.40;;;11.70;99.90;;;;;;5093471;28;20344;-88
2023/05/24 05:26:53;;;;;;;23.45;5.60;;;11.80;99.90;;;;;;5094230;28;20399;-89
2023/05/24 05:29:18;;;;;;;19.27;6.10;;;11.80;99.90;;;;;;5094787;28;20494;-89
2023/05/24 05:31:46;;;;;;;15.55;5.50;;;11.80;99.90;;;;;;5096196;28;20387;-90
2023/05/24 05:34:11;;;;;;;13.77;4.78;;;11.80;99.90;;;;;;5094654;28;20020;-89
2023/05/24 05:36:39;;;;;;;22.55;5.80;;;11.90;99.90;;;;;;5095291;28;20043;-87
2023/05/24 05:39:08;;;;;;;20.75;5.72;;;11.90;99.90;;;;;;5095430;28;20020;-89
2023/05/24 05:41:44;;;;;;;15.48;5.40;;;11.90;99.90;;;;;;5094019;28;20142;-88
2023/05/24 05:44:11;;;;;;;20.98;5.55;;;12.00;99.90;;;;;;5114021;28;20090;-89
2023/05/24 05:46:37;;;;;;;21.15;5.53;;;12.00;99.90;;;;;;5101707;28;20028;-89
2023/05/24 05:49:03;;;;;;;23.10;5.32;;;12.00;99.90;;;;;;5095449;28;20353;-86
2023/05/24 05:51:29;;;;;;;23.50;5.95;;;12.40;99.90;;;;;;5095491;28;20078;-89
2023/05/24 05:53:55;;;;;;;16.75;5.53;;;12.10;99.90;;;;;;5093317;28;20035;-89
2023/05/24 05:56:20;;;;;;;29.85;5.63;;;12.10;99.90;;;;;;5093124;28;20036;-89
2023/05/24 05:58:46;;;;;;;22.02;5.03;;;12.20;99.90;;;;;;5092788;28;20028;-88
2023/05/24 06:01:11;;;;;;;21.00;5.90;;;12.20;99.90;;;;;;5101083;28;20023;-89
2023/05/24 06:03:37;;;;;;;22.17;5.45;;;12.20;99.90;;;;;;5113894;28;20024;-86
2023/05/24 06:06:03;;;;;;;18.73;5.45;;;12.80;99.90;;;;;;5113334;28;20493;-87
2023/05/24 06:08:33;;;;;;;19.38;5.78;;;12.10;99.90;;;;;;5113456;28;20110;-85
2023/05/24 06:10:59;;;;;;;18.50;5.43;;;12.20;99.90;;;;;;5114390;28;20080;-85
2023/05/24 06:13:27;;;;;;;22.52;6.45;;;12.10;99.90;;;;;;5113791;28;20357;-85
2023/05/24 06:15:52;;;;;;;29.25;5.28;;;12.20;99.90;;;;;;5114736;28;20492;-85
2023/05/24 06:18:18;;;;;;;24.35;5.82;;;12.30;99.90;;;;;;5111404;28;20135;-86
2023/05/24 06:20:44;;;;;;;22.00;6.13;;;12.20;99.90;;;;;;5093313;28;20028;-86
2023/05/24 06:23:09;;;;;;;21.92;5.70;;;12.20;99.90;;;;;;5093877;28;20529;-85
2023/05/24 06:25:37;;;;;;;22.23;6.25;;;12.30;99.90;;;;;;5093884;28;20027;-85
2023/05/24 06:28:03;;;;;;;19.20;6.80;;;12.50;99.90;;;;;;5093335;28;20024;-85
2023/05/24 06:30:28;;;;;;;24.23;7.35;;;12.30;99.90;;;;;;5094041;28;20093;-85
2023/05/24 06:32:55;;;;;;;21.83;7.82;;;13.00;99.90;;;;;;5093582;28;20052;-85
2023/05/24 06:35:21;;;;;;;27.33;8.40;;;12.40;99.90;;;;;;5092927;28;20058;-85
2023/05/24 06:37:46;;;;;;;26.15;8.65;;;12.40;99.90;;;;;;5093393;28;20156;-85
2023/05/24 06:40:12;;;;;;;26.40;8.60;;;12.50;99.90;;;;;;5093685;28;20016;-86
2023/05/24 06:42:38;;;;;;;21.58;8.45;;;12.50;99.90;;;;;;5093000;28;20521;-85
2023/05/24 06:45:04;;;;;;;33.08;9.02;;;12.50;99.90;;;;;;5093734;28;20020;-86
2023/05/24 06:47:30;;;;;;;27.80;8.68;;;12.50;99.90;;;;;;5093756;28;20020;-85
2023/05/24 06:49:56;;;;;;;22.48;8.45;;;12.60;99.90;;;;;;5092691;28;20028;-86
2023/05/24 06:52:22;;;;;;;26.30;7.95;;;12.60;99.90;;;;;;5093785;28;20389;-85
2023/05/24 06:54:48;;;;;;;18.50;7.47;;;12.60;99.90;;;;;;5092816;28;20040;-85
2023/05/24 06:57:14;;;;;;;23.17;8.15;;;12.70;99.90;;;;;;5092568;28;20039;-85
2023/05/24 06:59:40;;;;;;;27.63;6.90;;;12.70;99.90;;;;;;5093202;28;20020;-87
2023/05/24 07:02:05;;;;;;;28.27;7.88;;;12.70;99.90;;;;;;5093625;28;20020;-90
2023/05/24 07:04:31;;;;;;;21.58;7.10;;;12.70;99.90;;;;;;5092665;28;20016;-84
2023/05/24 07:06:57;;;;;;;29.45;7.38;;;12.80;99.90;;;;;;5091091;28;20024;-85
2023/05/24 07:09:22;;;;;;;21.70;6.50;;;12.90;99.90;;;;;;5099334;28;20012;-86
2023/05/24 07:11:48;;;;;;;21.80;6.18;;;13.30;99.90;;;;;;5093394;28;20034;-88
2023/05/24 07:14:14;;;;;;;22.35;6.03;;;12.80;99.90;;;;;;5092516;28;20020;-88
2023/05/24 07:16:40;;;;;;;18.10;4.85;;;12.90;99.90;;;;;;5092670;28;20036;-88
2023/05/24 07:19:06;;;;;;;22.42;5.70;;;12.90;99.90;;;;;;5092992;28;20016;-89
2023/05/24 07:21:32;;;;;;;16.90;5.85;;;12.90;99.90;;;;;;5091536;28;20085;-87
2023/05/24 07:23:57;;;;;;;14.52;4.47;;;13.00;99.90;;;;;;5091061;28;20047;-87
2023/05/24 07:26:23;;;;;;;16.08;4.30;;;13.00;99.90;;;;;;5091723;28;20024;-87
2023/05/24 07:28:49;;;;;;;24.10;5.32;;;13.10;99.90;;;;;;5091402;28;20494;-88
2023/05/24 07:31:15;;;;;;;18.95;4.70;;;13.10;99.90;;;;;;5090943;28;20185;-87
2023/05/24 07:33:40;;;;;;;14.57;4.10;;;13.10;99.90;;;;;;5092275;28;20028;-88
2023/05/24 07:36:07;;;;;;;18.55;5.53;;;13.10;99.90;;;;;;5093559;28;20093;-88
2023/05/24 07:38:33;;;;;;;23.10;5.60;;;13.10;99.90;;;;;;5092466;28;20024;-88
2023/05/24 07:41:00;;;;;;;17.25;5.00;;;13.20;99.90;;;;;;5093033;28;20024;-88
2023/05/24 07:43:26;;;;;;;14.65;4.47;;;13.20;99.90;;;;;;5093414;28;20028;-87
2023/05/24 07:45:52;;;;;;;20.05;5.30;;;13.20;99.90;;;;;;5092243;28;20028;-87
2023/05/24 07:48:19;;;;;;;18.52;4.85;;;13.20;99.90;;;;;;5092824;28;20154;-87
2023/05/24 07:50:47;;;;;;;12.88;5.38;;;13.30;99.90;;;;;;5093035;28;20031;-88
2023/05/24 07:53:14;;;;;;;14.50;4.93;;;13.30;99.90;;;;;;5092483;28;20109;-87
2023/05/24 07:55:39;;;;;;;14.50;4.53;;;13.30;99.90;;;;;;5092375;28;20103;-88
2023/05/24 07:58:05;;;;;;;20.60;5.07;;;13.30;99.90;;;;;;5093079;28;20052;-88
2023/05/24 08:00:32;;;;;;;21.00;5.25;;;13.40;99.90;;;;;;5092235;28;20020;-87
2023/05/24 08:03:01;;;;;;;13.75;4.28;;;13.40;99.90;;;;;;5097036;28;20035;-87
2023/05/24 08:05:27;;;;;;;10.13;4.47;;;13.40;99.90;;;;;;5092983;28;20078;-88
2023/05/24 08:07:53;;;;;;;14.60;5.05;;;13.50;99.90;;;;;;5091225;28;20028;-88
2023/05/24 08:10:19;;;;;;;18.73;5.25;;;13.50;99.90;;;;;;5092716;28;20028;-87
2023/05/24 08:12:45;;;;;;;22.90;5.55;;;13.50;99.90;;;;;;5091788;28;20034;-88
2023/05/24 08:15:10;;;;;;;18.58;5.35;;;13.60;99.90;;;;;;5092733;28;20027;-88
2023/05/24 08:17:38;;;;;;;15.13;4.55;;;13.70;99.90;;;;;;5092235;28;20032;-87
2023/05/24 08:20:08;;;;;;;14.05;4.82;;;13.60;99.90;;;;;;5092338;28;20024;-88
2023/05/24 08:22:34;;;;;;;14.35;5.35;;;13.70;99.90;;;;;;5092452;28;20475;-87
2023/05/24 08:24:59;;;;;;;15.73;5.00;;;13.80;99.90;;;;;;5093095;28;20024;-87
2023/05/24 08:27:27;;;;;;;24.25;6.20;;;14.50;99.90;;;;;;5091866;28;20028;-87
2023/05/24 08:29:53;;;;;;;13.05;4.78;;;13.80;99.90;;;;;;5092080;28;20032;-88
2023/05/24 08:32:19;;;;;;;12.70;4.40;;;13.80;99.90;;;;;;5092410;28;20031;-89
2023/05/24 08:34:45;;;;;;;15.75;5.75;;;13.90;99.90;;;;;;5091354;28;20384;-87
2023/05/24 08:37:12;;;;;;;17.50;5.22;;;13.90;99.90;;;;;;5092166;28;20392;-88
2023/05/24 08:39:37;;;;;;;15.70;4.50;;;13.90;99.90;;;;;;5093779;28;20020;-86
2023/05/24 08:42:05;;;;;;;10.20;4.53;;;13.90;99.90;;;;;;5088555;28;20035;-91
2023/05/24 08:44:40;;;;;;;17.52;5.10;;;14.00;99.90;;;;;;5091626;28;20020;-88
2023/05/24 08:47:06;;;;;;;18.48;5.90;;;14.00;99.90;;;;;;5091957;28;20028;-88
2023/05/24 08:49:33;;;;;;;16.25;5.68;;;14.10;99.90;;;;;;5087812;28;20021;-88
2023/05/24 08:52:00;;;;;;;13.57;5.45;;;14.10;99.90;;;;;;5091728;28;20055;-86
2023/05/24 08:54:26;;;;;;;13.25;5.28;;;14.20;99.90;;;;;;5085388;28;20067;-89
2023/05/24 08:56:52;;;;;;;17.30;4.57;;;14.20;99.90;;;;;;5104722;28;20036;-88
2023/05/24 08:59:17;;;;;;;13.50;4.63;;;14.20;99.90;;;;;;5090683;28;20107;-88
2023/05/24 09:01:46;;;;;;;14.45;4.93;;;14.20;99.90;;;;;;5089754;28;20032;-88
2023/05/24 09:04:12;;;;;;;20.33;4.78;;;14.30;99.90;;;;;;5088265;28;20031;-88
2023/05/24 09:06:38;;;;;;;9.85;4.35;;;14.30;99.90;;;;;;5089620;28;20096;-87
2023/05/24 09:09:05;;;;;;;16.92;4.97;;;14.40;99.90;;;;;;5088444;28;20051;-88
2023/05/24 09:11:31;;;;;;;10.15;4.57;;;14.40;99.90;;;;;;5089721;28;20065;-88
2023/05/24 09:13:58;;;;;;;13.93;5.43;;;14.40;99.90;;;;;;5087854;28;20028;-88
2023/05/24 09:16:23;;;;;;;13.43;5.10;;;14.40;99.90;;;;;;5091730;28;20039;-87
2023/05/24 09:18:49;;;;;;;16.67;4.85;;;15.10;99.90;;;;;;5092440;28;20028;-87
2023/05/24 09:21:15;;;;;;;16.38;4.55;;;14.60;99.90;;;;;;5095461;28;20028;-88
2023/05/24 09:23:41;;;;;;;15.13;4.88;;;14.50;99.90;;;;;;5098446;28;20024;-89
2023/05/24 09:26:08;;;;;;;14.88;4.75;;;14.50;99.90;;;;;;5100325;28;20035;-89
2023/05/24 09:28:34;;;;;;;18.10;4.75;;;14.60;99.90;;;;;;5105635;28;20024;-88
2023/05/24 09:31:01;;;;;;;15.48;4.90;;;14.50;99.90;;;;;;5100975;28;20051;-90
2023/05/24 09:33:29;;;;;;;14.70;5.45;;;14.50;99.90;;;;;;5102996;28;20486;-87
2023/05/24 09:36:03;;;;;;;18.23;5.15;;;14.60;99.90;;;;;;5094253;28;20047;-88
2023/05/24 09:38:29;;;;;;;15.50;4.93;;;14.60;99.90;;;;;;5094555;28;20078;-88
2023/05/24 09:41:02;;;;;;;12.95;4.70;;;14.70;99.90;;;;;;5094980;28;20032;-89
2023/05/24 09:43:31;;;;;;;16.05;4.70;;;14.80;99.90;;;;;;5095251;28;20046;-88
2023/05/24 09:45:58;;;;;;;15.83;4.87;;;14.70;99.90;;;;;;5094351;28;20111;-87
2023/05/24 09:48:24;;;;;;;10.77;4.30;;;14.70;99.90;;;;;;5095660;28;20048;-86
2023/05/24 09:51:05;;;;;;;15.88;4.80;;;14.80;99.90;;;;;;5104414;28;20388;-87
2023/05/24 09:53:35;;;;;;;13.88;4.75;;;14.80;99.90;;;;;;5093931;28;20078;-88
2023/05/24 09:56:04;;;;;;;15.85;4.68;;;15.10;99.90;;;;;;5094766;28;20613;-88
2023/05/24 09:58:33;;;;;;;15.50;5.40;;;14.90;99.90;;;;;;5093814;28;20039;-87
2023/05/24 10:01:06;;;;;;;12.82;5.18;;;14.90;99.90;;;;;;5094768;28;20426;-90
2023/05/24 10:03:32;;;;;;;10.52;3.90;;;15.00;99.90;;;;;;5095669;28;20028;-89
2023/05/24 10:05:59;;;;;;;9.15;3.90;;;15.10;99.90;;;;;;5095370;28;20031;-90
2023/05/24 10:08:25;;;;;;;12.60;4.32;;;15.10;99.90;;;;;;5100382;28;20111;-90
2023/05/24 10:10:51;;;;;;;14.05;4.15;;;15.10;99.90;;;;;;5094923;28;20124;-88
2023/05/24 10:13:17;;;;;;;15.52;4.80;;;15.70;99.90;;;;;;5096420;28;20028;-89
2023/05/24 10:15:44;;;;;;;10.50;3.90;;;15.40;99.90;;;;;;5094441;28;20055;-89
2023/05/24 10:18:09;;;;;;;13.65;4.57;;;15.20;99.90;;;;;;5094589;28;20020;-88
2023/05/24 10:20:35;;;;;;;14.00;4.25;;;15.30;99.90;;;;;;5093521;28;20027;-88
2023/05/24 10:23:08;;;;;;;14.60;4.30;;;15.30;99.90;;;;;;5094513;28;20032;-87
2023/05/24 10:25:37;;;;;;;16.73;5.32;;;15.40;99.90;;;;;;5092009;28;20082;-84
2023/05/24 10:28:11;;;;;;;9.90;5.03;;;15.30;99.90;;;;;;5093650;28;20031;-87
2023/05/24 10:30:46;;;;;;;14.13;4.88;;;15.30;99.90;;;;;;5093293;28;20024;-86
2023/05/24 10:33:13;;;;;;;15.07;5.18;;;15.30;99.90;;;;;;5094117;28;20028;-86
2023/05/24 10:35:41;;;;;;;14.23;4.03;;;15.20;99.90;;;;;;5092761;28;20062;-86
2023/05/24 10:38:07;;;;;;;15.70;5.53;;;15.20;99.90;;;;;;5094209;28;20039;-87
2023/05/24 10:40:33;;;;;;;13.07;4.80;;;15.50;99.90;;;;;;5093218;28;20016;-87
2023/05/24 10:43:03;;;;;;;12.15;4.22;;;15.40;99.90;;;;;;5100458;28;20024;-87
2023/05/24 10:45:31;;;;;;;13.68;4.88;;;15.40;99.90;;;;;;5095283;28;20020;-86
2023/05/24 10:48:00;;;;;;;16.33;4.68;;;15.60;99.90;;;;;;5093262;28;20488;-86
2023/05/24 10:50:28;;;;;;;16.90;4.57;;;15.60;99.90;;;;;;5093244;28;20494;-85
2023/05/24 10:53:17;;;;;;;17.60;4.88;;;15.50;99.90;;;;;;5081233;28;20035;-88
2023/05/24 10:56:00;;;;;;;16.38;4.28;;;15.50;99.90;;;;;;5086645;28;20048;-88
2023/05/24 10:58:53;;;;;;;12.90;4.03;;;15.50;99.90;;;;;;5092801;28;20472;-90
2023/05/24 11:01:32;;;;;;;17.48;4.72;;;15.60;99.90;;;;;;5090960;28;20153;-85
2023/05/24 11:04:17;;;;;;;18.20;4.15;;;15.60;99.90;;;;;;5091500;28;20028;-86
2023/05/24 11:06:49;;;;;;;9.48;3.90;;;15.70;99.90;;;;;;5090042;28;20118;-86
2023/05/24 11:09:21;;;;;;;12.93;4.85;;;15.70;99.90;;;;;;5087882;28;20533;-86
2023/05/24 11:11:48;;;;;;;18.45;5.35;;;15.70;99.90;;;;;;5089499;28;20032;-84
2023/05/24 11:14:18;;;;;;;18.65;3.90;;;15.70;99.90;;;;;;5089837;28;20063;-85
2023/05/24 11:16:45;;;;;;;13.60;4.57;;;15.80;99.90;;;;;;5089359;28;20032;-85
2023/05/24 11:19:21;;;;;;;13.65;4.38;;;15.80;99.90;;;;;;5090960;28;20025;-84
2023/05/24 11:21:49;;;;;;;11.65;4.80;;;15.80;99.90;;;;;;5087177;28;20028;-85
2023/05/24 11:24:17;;;;;;;13.52;4.82;;;15.90;99.90;;;;;;5090113;28;20051;-85
2023/05/24 11:26:43;;;;;;;16.48;4.50;;;15.80;99.90;;;;;;5090976;28;20423;-86
2023/05/24 11:29:09;;;;;;;13.05;4.45;;;15.80;99.90;;;;;;5091010;28;20042;-87
2023/05/24 11:31:38;;;;;;;13.77;4.65;;;15.80;99.90;;;;;;5090477;28;20098;-88
2023/05/24 11:34:05;;;;;;;17.45;5.28;;;15.80;99.90;;;;;;5091012;28;20496;-87
2023/05/24 11:36:32;;;;;;;14.40;4.97;;;15.90;99.90;;;;;;5094457;28;20032;-87
2023/05/24 11:38:57;;;;;;;16.35;4.90;;;15.90;99.90;;;;;;5092754;28;20077;-86
2023/05/24 11:41:23;;;;;;;16.65;4.65;;;15.90;99.90;;;;;;5091671;28;20452;-87
2023/05/24 11:43:49;;;;;;;14.18;5.55;;;15.90;99.90;;;;;;5091632;28;20409;-87
2023/05/24 11:46:15;;;;;;;12.13;5.18;;;16.30;99.90;;;;;;5092494;28;20023;-87
2023/05/24 11:48:41;;;;;;;16.60;4.93;;;15.90;99.90;;;;;;5091443;28;20020;-87
2023/05/24 11:51:06;;;;;;;9.15;4.63;;;15.90;99.90;;;;;;5090773;28;20024;-86
2023/05/24 11:53:32;;;;;;;15.80;5.18;;;15.90;99.90;;;;;;5092133;28;20020;-87
2023/05/24 11:55:57;;;;;;;11.85;4.72;;;15.90;99.90;;;;;;5091983;28;20495;-87
2023/05/24 11:58:44;;;;;;;15.30;5.82;;;16.50;99.90;;;;;;5091679;28;20111;-87
2023/05/24 12:01:30;;;;;;;16.55;4.95;;;16.00;99.90;;;;;;5089931;28;20028;-87
2023/05/24 12:03:56;;;;;;;17.55;5.70;;;16.00;99.90;;;;;;5089068;28;20036;-85
2023/05/24 12:06:21;;;;;;;16.10;5.63;;;16.00;99.90;;;;;;5092033;28;20394;-86
2023/05/24 12:08:48;;;;;;;14.40;5.22;;;16.00;99.90;;;;;;5091751;28;20031;-85
2023/05/24 12:11:15;;;;;;;21.65;6.38;;;16.10;99.90;;;;;;5090477;28;20036;-86
2023/05/24 12:13:40;;;;;;;11.13;4.47;;;16.10;99.90;;;;;;5090227;28;20020;-87
2023/05/24 12:16:06;;;;;;;12.77;4.93;;;16.00;99.90;;;;;;5090721;28;20058;-86
2023/05/24 12:18:32;;;;;;;14.80;5.47;;;16.00;99.90;;;;;;5091337;28;20032;-86
2023/05/24 12:20:58;;;;;;;16.45;5.45;;;16.00;99.90;;;;;;5091232;28;20028;-85
2023/05/24 12:23:30;;;;;;;16.92;4.93;;;16.00;99.90;;;;;;5091422;28;20426;-86
2023/05/24 12:26:00;;;;;;;15.35;5.03;;;16.00;99.90;;;;;;5091140;28;20021;-85
2023/05/24 12:28:27;;;;;;;13.02;4.60;;;16.00;99.90;;;;;;5091426;28;20032;-85
2023/05/24 12:30:53;;;;;;;14.30;4.93;;;16.10;99.90;;;;;;5091728;28;20032;-86
2023/05/24 12:33:19;;;;;;;12.45;4.93;;;16.00;99.90;;;;;;5090900;28;20035;-86
2023/05/24 12:35:46;;;;;;;12.93;5.13;;;16.10;99.90;;;;;;5092368;28;20031;-86
2023/05/24 12:38:12;;;;;;;16.65;5.70;;;16.10;99.90;;;;;;5092406;28;20032;-86
2023/05/24 12:40:41;;;;;;;14.13;5.22;;;16.20;99.90;;;;;;5091480;28;20452;-85